Carnival Liberty — HPYE — position and weather

sailwx.info

Track history (hours):
 
Tides and Currents Weather Stations Pressure Air Temp Water Temp Dewpoint Dewpoint Depression Visibility Wind Speed Wind Dir Waves Ship Positions

Carnival Liberty

Last reported at 2015-Jul-04 23:33 UTC. Time now 2015-Jul-05 13:16 UTC.
Position N 18°02' W 063°39'.

Type: Ship. MMSI: 371083000.

Date/timePositionNaut miles runAvg speedWind from/ knotsBaromVisibWave heightAir tempDewpointWater temp
2015-Jul-04 23:33N 18°02' W 063°39'1716.9
2015-Jul-04 22:33N 18°01' W 063°21'1616.0
2015-Jul-04 21:32N 18°00' W 063°04'1 1.0
2015-Jul-04 20:26N 18°01' W 063°03'0 0.0
2015-Jul-04 15:33N 18°01' W 063°03'0 0.0
2015-Jul-04 11:04N 18°01' W 063°03'0 0.0
2015-Jul-04 10:32N 18°01' W 063°03'6 6.7
2015-Jul-04 09:33N 18°00' W 063°10'10 9.5
2015-Jul-04 08:32N 18°03' W 063°19'9 9.7
2015-Jul-04 07:33N 18°06' W 063°29'9 8.7
2015-Jul-04 06:32N 18°09' W 063°38'8 8.0
2015-Jul-04 05:33N 18°01' W 063°39'9 8.5
2015-Jul-04 04:33N 17°59' W 063°31'9 9.0
2015-Jul-04 03:33N 17°56' W 063°22'9 9.4
2015-Jul-04 02:33N 17°50' W 063°15'9 9.4
2015-Jul-04 01:33N 17°43' W 063°08'10 9.7
2015-Jul-04 00:30N 17°33' W 063°06'60 3.7
2015-Jul-03 08:33N 16°43' W 062°32'1716.4
2015-Jul-03 07:33N 16°28' W 062°24'10216.9
2015-Jul-03 01:30N 14°57' W 061°36'1616.7
2015-Jul-03 00:33N 14°43' W 061°29'1717.4
2015-Jul-02 23:33N 14°27' W 061°21'1716.9
2015-Jul-02 22:33N 14°12' W 061°13'1712.8
2015-Jul-02 21:13N 14°01' W 060°60'0 0.0
2015-Jul-02 20:31N 14°01' W 060°60'0 0.0
2015-Jul-02 19:33N 14°01' W 060°60'0 0.0
2015-Jul-02 18:30N 14°01' W 060°60'0 0.0
2015-Jul-02 17:33N 14°01' W 060°60'0 0.0
2015-Jul-02 16:29N 14°01' W 060°60'0 0.0
2015-Jul-02 15:29N 14°01' W 060°60'0 0.0
2015-Jul-02 14:28N 14°01' W 060°60'0 0.0
2015-Jul-02 13:31N 14°01' W 060°60'0 0.0
2015-Jul-02 12:33N 14°01' W 060°60'0 0.0
2015-Jul-02 11:34N 14°01' W 060°60'5 5.2
2015-Jul-02 10:34N 14°01' W 061°05'9 9.2
2015-Jul-02 09:33N 13°57' W 061°14'30 8.5
2015-Jul-02 06:00N 13°30' W 061°00'43 1.6 060 / 201013.0 5.4 1.527.019.328.0
2015-Jul-01 03:33N 14°08' W 060°40'1414.3
2015-Jul-01 02:33N 14°13' W 060°53'1515.0
2015-Jul-01 01:34N 14°15' W 061°09'1414.0
2015-Jul-01 00:33N 14°22' W 061°21'1615.8
2015-Jun-30 23:33N 14°35' W 061°31'1615.5
2015-Jun-30 22:33N 14°47' W 061°41'26513.9
2015-Jun-30 03:33N 18°05' W 064°44'1413.5
2015-Jun-30 02:31N 18°15' W 064°55'2 0.1
2015-Jun-29 08:21N 18°17' W 064°56'109 2.5
2015-Jun-27 12:22N 18°01' W 063°03'0 0.0
2015-Jun-27 11:31N 18°01' W 063°03'0 0.0
2015-Jun-27 10:32N 18°01' W 063°03'6 5.9
2015-Jun-27 09:32N 18°00' W 063°09'10 9.9
2015-Jun-27 08:33N 18°02' W 063°19'9 9.4
2015-Jun-27 07:33N 18°06' W 063°28'9 9.0
2015-Jun-27 06:33N 18°10' W 063°37'7 7.0
2015-Jun-27 05:33N 18°03' W 063°40'8 8.0
2015-Jun-27 04:33N 17°59' W 063°33'10 9.8
2015-Jun-27 03:33N 17°57' W 063°22'10 9.9
2015-Jun-27 02:33N 17°50' W 063°15'10 9.4
2015-Jun-27 01:33N 17°44' W 063°08'10 9.6
2015-Jun-27 00:32N 17°34' W 063°06'179 7.6
2015-Jun-26 01:07N 14°57' W 061°37'1017.5
2015-Jun-26 00:33N 14°48' W 061°32'1818.0
2015-Jun-25 23:33N 14°32' W 061°24'1818.0
2015-Jun-25 22:33N 14°16' W 061°15'2214.7
2015-Jun-25 21:05N 14°01' W 060°60'0 0.1
2015-Jun-25 20:32N 14°01' W 060°60'0 0.0
2015-Jun-25 19:32N 14°01' W 060°60'0 0.0
2015-Jun-25 18:31N 14°01' W 060°60'0 0.0
2015-Jun-25 17:25N 14°01' W 060°60'0 0.0
2015-Jun-25 16:30N 14°01' W 060°60'0 0.0
2015-Jun-25 15:33N 14°01' W 060°60'0 0.0
2015-Jun-25 14:32N 14°01' W 060°60'0 0.0
2015-Jun-25 13:26N 14°01' W 060°60'0 0.0
2015-Jun-25 12:29N 14°01' W 060°60'0 0.0
2015-Jun-25 11:32N 14°01' W 060°60'5 4.9
2015-Jun-25 10:33N 14°02' W 061°05'10 9.8
2015-Jun-25 09:33N 13°57' W 061°14'  
Track history (hours):
 
Tides and Currents Weather Stations Pressure Air Temp Water Temp Dewpoint Dewpoint Depression Visibility Wind Speed Wind Dir Waves Ship Positions

Carnival Liberty

Last reported at 2015-Jul-04 23:33 UTC. Time now 2015-Jul-05 13:16 UTC.
Position N 18°02' W 063°39'.

Type: Ship. MMSI: 371083000.

Date/timePositionNaut miles runAvg speedWind from/ knotsBaromVisibWave heightAir tempDewpointWater temp
2015-Jul-04 23:33N 18°02' W 063°39'1716.9
2015-Jul-04 22:33N 18°01' W 063°21'1616.0
2015-Jul-04 21:32N 18°00' W 063°04'1 1.0
2015-Jul-04 20:26N 18°01' W 063°03'0 0.0
2015-Jul-04 15:33N 18°01' W 063°03'0 0.0
2015-Jul-04 11:04N 18°01' W 063°03'0 0.0
2015-Jul-04 10:32N 18°01' W 063°03'6 6.7
2015-Jul-04 09:33N 18°00' W 063°10'10 9.5
2015-Jul-04 08:32N 18°03' W 063°19'9 9.7
2015-Jul-04 07:33N 18°06' W 063°29'9 8.7
2015-Jul-04 06:32N 18°09' W 063°38'8 8.0
2015-Jul-04 05:33N 18°01' W 063°39'9 8.5
2015-Jul-04 04:33N 17°59' W 063°31'9 9.0
2015-Jul-04 03:33N 17°56' W 063°22'9 9.4
2015-Jul-04 02:33N 17°50' W 063°15'9 9.4
2015-Jul-04 01:33N 17°43' W 063°08'10 9.7
2015-Jul-04 00:30N 17°33' W 063°06'60 3.7
2015-Jul-03 08:33N 16°43' W 062°32'1716.4
2015-Jul-03 07:33N 16°28' W 062°24'10216.9
2015-Jul-03 01:30N 14°57' W 061°36'1616.7
2015-Jul-03 00:33N 14°43' W 061°29'1717.4
2015-Jul-02 23:33N 14°27' W 061°21'1716.9
2015-Jul-02 22:33N 14°12' W 061°13'1712.8
2015-Jul-02 21:13N 14°01' W 060°60'0 0.0
2015-Jul-02 20:31N 14°01' W 060°60'0 0.0
2015-Jul-02 19:33N 14°01' W 060°60'0 0.0
2015-Jul-02 18:30N 14°01' W 060°60'0 0.0
2015-Jul-02 17:33N 14°01' W 060°60'0 0.0
2015-Jul-02 16:29N 14°01' W 060°60'0 0.0
2015-Jul-02 15:29N 14°01' W 060°60'0 0.0
2015-Jul-02 14:28N 14°01' W 060°60'0 0.0
2015-Jul-02 13:31N 14°01' W 060°60'0 0.0
2015-Jul-02 12:33N 14°01' W 060°60'0 0.0
2015-Jul-02 11:34N 14°01' W 060°60'5 5.2
2015-Jul-02 10:34N 14°01' W 061°05'9 9.2
2015-Jul-02 09:33N 13°57' W 061°14'30 8.5
2015-Jul-02 06:00N 13°30' W 061°00'43 1.6 060 / 201013.0 5.4 1.527.019.328.0
2015-Jul-01 03:33N 14°08' W 060°40'1414.3
2015-Jul-01 02:33N 14°13' W 060°53'1515.0
2015-Jul-01 01:34N 14°15' W 061°09'1414.0
2015-Jul-01 00:33N 14°22' W 061°21'1615.8
2015-Jun-30 23:33N 14°35' W 061°31'1615.5
2015-Jun-30 22:33N 14°47' W 061°41'26513.9
2015-Jun-30 03:33N 18°05' W 064°44'1413.5
2015-Jun-30 02:31N 18°15' W 064°55'2 0.1
2015-Jun-29 08:21N 18°17' W 064°56'109 2.5
2015-Jun-27 12:22N 18°01' W 063°03'0 0.0
2015-Jun-27 11:31N 18°01' W 063°03'0 0.0
2015-Jun-27 10:32N 18°01' W 063°03'6 5.9
2015-Jun-27 09:32N 18°00' W 063°09'10 9.9
2015-Jun-27 08:33N 18°02' W 063°19'9 9.4
2015-Jun-27 07:33N 18°06' W 063°28'9 9.0
2015-Jun-27 06:33N 18°10' W 063°37'7 7.0
2015-Jun-27 05:33N 18°03' W 063°40'8 8.0
2015-Jun-27 04:33N 17°59' W 063°33'10 9.8
2015-Jun-27 03:33N 17°57' W 063°22'10 9.9
2015-Jun-27 02:33N 17°50' W 063°15'10 9.4
2015-Jun-27 01:33N 17°44' W 063°08'10 9.6
2015-Jun-27 00:32N 17°34' W 063°06'179 7.6
2015-Jun-26 01:07N 14°57' W 061°37'1017.5
2015-Jun-26 00:33N 14°48' W 061°32'1818.0
2015-Jun-25 23:33N 14°32' W 061°24'1818.0
2015-Jun-25 22:33N 14°16' W 061°15'2214.7
2015-Jun-25 21:05N 14°01' W 060°60'0 0.1
2015-Jun-25 20:32N 14°01' W 060°60'0 0.0
2015-Jun-25 19:32N 14°01' W 060°60'0 0.0
2015-Jun-25 18:31N 14°01' W 060°60'0 0.0
2015-Jun-25 17:25N 14°01' W 060°60'0 0.0
2015-Jun-25 16:30N 14°01' W 060°60'0 0.0
2015-Jun-25 15:33N 14°01' W 060°60'0 0.0
2015-Jun-25 14:32N 14°01' W 060°60'0 0.0
2015-Jun-25 13:26N 14°01' W 060°60'0 0.0
2015-Jun-25 12:29N 14°01' W 060°60'0 0.0
2015-Jun-25 11:32N 14°01' W 060°60'5 4.9
2015-Jun-25 10:33N 14°02' W 061°05'10 9.8
2015-Jun-25 09:33N 13°57' W 061°14'  

Dump ship's entire track history